createdAt,value
2018-09-19T00:00:42.190Z,36.40
2018-09-19T00:02:44.443Z,34.63
2018-09-19T00:04:46.713Z,36.63
2018-09-19T00:06:48.998Z,39.90
2018-09-19T00:08:51.292Z,37.85
2018-09-19T00:10:53.715Z,36.75
2018-09-19T00:12:55.979Z,39.25
2018-09-19T00:14:58.261Z,35.48
2018-09-19T00:17:00.547Z,34.35
2018-09-19T00:19:02.799Z,35.43
2018-09-19T00:21:05.059Z,34.48
2018-09-19T00:23:07.336Z,36.03
2018-09-19T00:25:09.607Z,33.35
2018-09-19T00:27:11.864Z,33.63
2018-09-19T00:29:14.191Z,36.93
2018-09-19T00:31:16.424Z,31.87
2018-09-19T00:33:18.676Z,36.95
2018-09-19T00:35:20.961Z,30.70
2018-09-19T00:37:23.269Z,32.88
2018-09-19T00:39:25.485Z,35.58
2018-09-19T00:41:27.793Z,35.52
2018-09-19T00:43:30.031Z,31.65
2018-09-19T00:45:32.286Z,32.53
2018-09-19T00:47:34.567Z,31.77
2018-09-19T00:49:36.807Z,31.80
2018-09-19T00:51:39.070Z,34.45
2018-09-19T00:53:41.355Z,33.95
2018-09-19T00:55:43.585Z,30.70
2018-09-19T00:57:45.897Z,31.12
2018-09-19T00:59:48.635Z,31.60
2018-09-19T01:01:50.871Z,32.98
2018-09-19T01:03:53.158Z,32.90
2018-09-19T01:05:55.407Z,33.75
2018-09-19T01:07:57.658Z,31.37
2018-09-19T01:09:59.946Z,33.50
2018-09-19T01:12:02.189Z,30.80
2018-09-19T01:14:04.479Z,28.95
2018-09-19T01:16:06.774Z,29.77
2018-09-19T01:18:09.014Z,28.52
2018-09-19T01:20:11.303Z,29.27
2018-09-19T01:22:13.568Z,29.02
2018-09-19T01:24:15.841Z,29.45
2018-09-19T01:26:18.104Z,28.52
2018-09-19T01:28:20.384Z,28.35
2018-09-19T01:30:22.628Z,26.55
2018-09-19T01:32:24.896Z,26.75
2018-09-19T01:34:27.187Z,27.37
2018-09-19T01:36:29.476Z,27.48
2018-09-19T01:38:31.738Z,28.12
2018-09-19T01:40:34.015Z,25.95
2018-09-19T01:42:36.301Z,24.92
2018-09-19T01:44:38.549Z,26.55
2018-09-19T01:46:40.850Z,27.05
2018-09-19T01:48:43.133Z,24.87
2018-09-19T01:50:45.381Z,26.23
2018-09-19T01:52:47.685Z,25.08
2018-09-19T01:54:49.941Z,26.48
2018-09-19T01:56:52.178Z,23.47
2018-09-19T01:58:54.469Z,24.63
2018-09-19T02:00:56.721Z,25.12
2018-09-19T02:02:58.998Z,23.22
2018-09-19T02:05:01.262Z,25.23
2018-09-19T02:07:03.508Z,24.60
2018-09-19T02:09:05.809Z,25.48
2018-09-19T02:11:08.110Z,23.65
2018-09-19T02:13:10.417Z,22.82
2018-09-19T02:15:12.693Z,25.72
2018-09-19T02:17:14.941Z,21.85
2018-09-19T02:19:17.221Z,22.75
2018-09-19T02:21:19.496Z,22.05
2018-09-19T02:23:21.766Z,22.45
2018-09-19T02:25:24.023Z,23.27
2018-09-19T02:27:26.302Z,20.48
2018-09-19T02:29:28.604Z,22.10
2018-09-19T02:31:30.860Z,21.20
2018-09-19T02:33:33.184Z,21.05
2018-09-19T02:35:35.429Z,20.32
2018-09-19T02:37:37.688Z,21.97
2018-09-19T02:39:39.977Z,21.40
2018-09-19T02:41:42.261Z,21.80
2018-09-19T02:43:44.526Z,21.07
2018-09-19T02:45:46.815Z,19.67
2018-09-19T02:47:49.081Z,21.60
2018-09-19T02:49:51.338Z,21.00
2018-09-19T02:51:53.640Z,19.35
2018-09-19T02:53:55.882Z,20.35
2018-09-19T02:55:58.127Z,20.32
2018-09-19T02:58:00.462Z,20.00
2018-09-19T03:00:02.683Z,20.92
2018-09-19T03:02:04.940Z,19.00
2018-09-19T03:04:07.210Z,21.12
2018-09-19T03:06:09.492Z,19.70
2018-09-19T03:08:11.771Z,18.60
2018-09-19T03:10:14.062Z,17.35
2018-09-19T03:12:16.336Z,20.05
2018-09-19T03:14:18.595Z,18.35
2018-09-19T03:16:20.872Z,19.98
2018-09-19T03:18:23.180Z,17.02
2018-09-19T03:20:25.438Z,18.85
2018-09-19T03:22:27.682Z,19.98
2018-09-19T03:24:29.966Z,15.65
2018-09-19T03:26:32.223Z,17.10
2018-09-19T03:28:34.494Z,16.97
2018-09-19T03:30:36.762Z,16.35
2018-09-19T03:32:39.007Z,16.70
2018-09-19T03:34:41.272Z,16.37
2018-09-19T03:36:43.920Z,15.58
2018-09-19T03:38:46.214Z,17.77
2018-09-19T03:40:48.457Z,16.10
2018-09-19T03:42:50.756Z,16.60
2018-09-19T03:44:53.010Z,16.75
2018-09-19T03:46:55.265Z,15.88
2018-09-19T03:48:57.549Z,15.93
2018-09-19T03:50:59.803Z,15.45
2018-09-19T03:53:02.089Z,16.42
2018-09-19T03:55:04.342Z,15.53
2018-09-19T03:57:06.608Z,16.20
2018-09-19T03:59:08.869Z,15.35
2018-09-19T04:01:11.151Z,15.98
2018-09-19T04:03:13.431Z,15.10
2018-09-19T04:05:15.677Z,15.80
2018-09-19T04:07:17.926Z,15.13
2018-09-19T04:09:20.214Z,16.42
2018-09-19T04:11:22.461Z,15.20
2018-09-19T04:13:24.756Z,14.85
2018-09-19T04:15:27.009Z,14.58
2018-09-19T04:17:29.270Z,16.10
2018-09-19T04:19:31.565Z,15.32
2018-09-19T04:21:33.805Z,13.18
2018-09-19T04:23:36.093Z,15.00
2018-09-19T04:25:38.346Z,13.70
2018-09-19T04:27:40.645Z,15.18
2018-09-19T04:29:42.911Z,12.73
2018-09-19T04:31:45.170Z,13.00
2018-09-19T04:33:47.457Z,13.88
2018-09-19T04:35:49.763Z,14.13
2018-09-19T04:37:52.020Z,13.10
2018-09-19T04:39:54.316Z,12.58
2018-09-19T04:41:56.667Z,13.28
2018-09-19T04:43:58.932Z,15.00
2018-09-19T04:46:01.221Z,12.45
2018-09-19T04:48:03.477Z,13.83
2018-09-19T04:50:05.755Z,13.75
2018-09-19T04:52:08.047Z,13.95
2018-09-19T04:54:10.292Z,13.15
2018-09-19T04:56:12.587Z,13.30
2018-09-19T04:58:14.831Z,13.05
2018-09-19T05:00:17.141Z,14.25
2018-09-19T05:02:19.469Z,13.93
2018-09-19T05:04:21.729Z,13.85
2018-09-19T05:06:24.007Z,13.28
2018-09-19T05:08:26.298Z,12.55
2018-09-19T05:10:28.548Z,12.98
2018-09-19T05:12:30.792Z,13.60
2018-09-19T05:14:33.097Z,13.55
2018-09-19T05:16:35.386Z,13.13
2018-09-19T05:18:37.647Z,13.18
2018-09-19T05:20:40.295Z,12.37
2018-09-19T05:22:42.544Z,12.65
2018-09-19T05:24:44.818Z,11.97
2018-09-19T05:26:47.126Z,12.73
2018-09-19T05:28:49.371Z,12.82
2018-09-19T05:30:51.634Z,11.73
2018-09-19T05:32:53.936Z,11.70
2018-09-19T05:34:56.208Z,11.00
2018-09-19T05:36:58.530Z,10.10
2018-09-19T05:39:00.818Z,10.90
2018-09-19T05:41:03.079Z,10.10
2018-09-19T05:43:05.337Z,10.88
2018-09-19T05:45:07.625Z,10.50
2018-09-19T05:47:09.927Z,10.35
2018-09-19T05:49:12.186Z,10.85
2018-09-19T05:51:14.492Z,10.93
2018-09-19T05:53:16.754Z,11.22
2018-09-19T05:55:19.010Z,10.53
2018-09-19T05:57:21.298Z,9.45
2018-09-19T05:59:23.560Z,10.30
2018-09-19T06:01:25.849Z,9.60
2018-09-19T06:03:28.110Z,10.25
2018-09-19T06:05:30.379Z,9.90
2018-09-19T06:07:32.649Z,9.33
2018-09-19T06:09:34.912Z,10.25
2018-09-19T06:11:37.186Z,10.08
2018-09-19T06:13:39.477Z,8.80
2018-09-19T06:15:41.738Z,9.25
2018-09-19T06:17:44.046Z,10.95
2018-09-19T06:19:46.334Z,9.30
2018-09-19T06:21:48.650Z,8.63
2018-09-19T06:23:50.907Z,8.78
2018-09-19T06:25:53.165Z,8.68
2018-09-19T06:27:55.456Z,9.35
2018-09-19T06:29:57.684Z,9.20
2018-09-19T06:31:59.956Z,8.48
2018-09-19T06:34:02.205Z,9.05
2018-09-19T06:36:04.497Z,8.90
2018-09-19T06:38:06.738Z,8.73
2018-09-19T06:40:09.034Z,8.43
2018-09-19T06:42:11.294Z,8.80
2018-09-19T06:44:13.579Z,8.95
2018-09-19T06:46:15.876Z,8.93
2018-09-19T06:48:18.136Z,8.10
2018-09-19T06:50:20.391Z,8.50
2018-09-19T06:52:22.731Z,8.45
2018-09-19T06:54:24.964Z,7.92
2018-09-19T06:56:27.228Z,8.00
2018-09-19T06:58:29.502Z,8.70
2018-09-19T07:00:31.743Z,8.05
2018-09-19T07:02:34.023Z,7.22
2018-09-19T07:04:36.272Z,8.65
2018-09-19T07:06:38.564Z,7.67
2018-09-19T07:08:40.860Z,7.70
2018-09-19T07:10:43.250Z,7.75
2018-09-19T07:12:45.372Z,8.15
2018-09-19T07:14:47.638Z,6.97
2018-09-19T07:16:49.918Z,4.90
2018-09-19T07:18:52.245Z,3.72
2018-09-19T07:20:54.500Z,165.32
2018-09-19T07:22:56.749Z,178.18
2018-09-19T07:24:59.413Z,42.15
2018-09-19T07:27:01.670Z,122.20
2018-09-19T07:29:03.972Z,58.48
2018-09-19T07:31:06.264Z,33.02
2018-09-19T07:33:08.520Z,24.15
2018-09-19T07:35:10.812Z,15.60
2018-09-19T07:37:13.680Z,11.60
2018-09-19T07:39:15.967Z,8.13
2018-09-19T07:41:18.750Z,5.15
2018-09-19T07:43:20.977Z,4.45
2018-09-19T07:45:23.222Z,3.45
2018-09-19T07:47:25.508Z,3.30
2018-09-19T07:49:27.759Z,2.98
2018-09-19T07:51:29.997Z,2.92
2018-09-19T07:53:32.302Z,3.08
2018-09-19T07:55:34.522Z,2.65
2018-09-19T07:57:36.771Z,2.35
2018-09-19T07:59:39.070Z,5.80
2018-09-19T08:01:41.351Z,94.67
2018-09-19T08:03:43.629Z,267.85
2018-09-19T08:05:45.920Z,54.35
2018-09-19T08:07:48.212Z,26.77
2018-09-19T08:09:50.555Z,19.55
2018-09-19T08:11:52.791Z,18.42
2018-09-19T08:13:55.075Z,8.95
2018-09-19T08:15:57.324Z,7.75
2018-09-19T08:17:59.576Z,5.55
2018-09-19T08:20:01.855Z,3.92
2018-09-19T08:22:04.140Z,4.30
2018-09-19T08:24:06.424Z,3.98
2018-09-19T08:26:08.667Z,3.25
2018-09-19T08:28:10.925Z,71.82
2018-09-19T08:30:13.217Z,86.55
2018-09-19T08:32:15.464Z,391.95
2018-09-19T08:34:17.755Z,99.05
2018-09-19T08:36:20.007Z,48.75
2018-09-19T08:38:22.251Z,24.90
2018-09-19T08:40:24.543Z,16.15
2018-09-19T08:42:26.809Z,15.65
2018-09-19T08:44:29.093Z,23.38
2018-09-19T08:46:31.335Z,32.80
2018-09-19T08:48:33.631Z,18.70
2018-09-19T08:50:36.002Z,16.65
2018-09-19T08:52:38.204Z,19.60
2018-09-19T08:54:40.489Z,20.23
2018-09-19T08:56:42.730Z,17.50
2018-09-19T08:58:45.031Z,120.05
2018-09-19T09:00:47.283Z,84.83
2018-09-19T09:02:49.583Z,440.98
2018-09-19T09:04:51.848Z,68.12
2018-09-19T09:06:54.140Z,44.83
2018-09-19T09:08:56.397Z,32.10
2018-09-19T09:10:58.697Z,48.08
2018-09-19T09:13:00.964Z,32.53
2018-09-19T09:15:03.211Z,49.03
2018-09-19T09:17:05.516Z,58.87
2018-09-19T09:19:07.846Z,248.65
2018-09-19T09:21:10.106Z,69.15
2018-09-19T09:23:12.349Z,57.08
2018-09-19T09:25:14.644Z,53.65
2018-09-19T09:27:16.942Z,74.72
2018-09-19T09:29:19.150Z,93.40
2018-09-19T09:31:21.449Z,88.90
2018-09-19T09:33:23.750Z,85.67
2018-09-19T09:35:26.010Z,79.20
2018-09-19T09:37:28.288Z,74.22
2018-09-19T09:39:30.595Z,71.60
2018-09-19T09:41:32.846Z,64.42
2018-09-19T09:43:35.184Z,60.95
2018-09-19T09:45:37.414Z,59.18
2018-09-19T09:47:39.695Z,37.00
2018-09-19T09:49:41.984Z,41.15
2018-09-19T09:51:44.282Z,48.23
2018-09-19T09:53:46.581Z,40.75
2018-09-19T09:55:48.835Z,39.88
2018-09-19T09:57:51.088Z,37.75
2018-09-19T09:59:53.386Z,40.75
2018-09-19T10:01:55.634Z,62.45
2018-09-19T10:03:57.904Z,72.30
2018-09-19T10:06:00.193Z,62.93
2018-09-19T10:08:02.456Z,55.60
2018-09-19T10:10:04.841Z,67.00
2018-09-19T10:12:07.118Z,75.85
2018-09-19T10:14:09.390Z,80.90
2018-09-19T10:16:11.685Z,74.03
2018-09-19T10:18:13.934Z,60.63
2018-09-19T10:20:16.256Z,42.17
2018-09-19T10:22:18.660Z,49.90
2018-09-19T10:24:20.928Z,52.80
2018-09-19T10:26:23.172Z,46.92
2018-09-19T10:28:25.483Z,42.73
2018-09-19T10:30:27.728Z,37.98
2018-09-19T10:32:30.033Z,32.48
2018-09-19T10:34:32.283Z,51.80
2018-09-19T10:36:34.617Z,39.20
2018-09-19T10:38:36.846Z,63.17
2018-09-19T10:40:39.143Z,98.27
2018-09-19T10:42:41.394Z,60.20
2018-09-19T10:44:43.646Z,59.40
2018-09-19T10:46:45.940Z,59.10
2018-09-19T10:48:48.190Z,54.85
2018-09-19T10:50:50.486Z,59.25
2018-09-19T10:52:52.770Z,52.80
2018-09-19T10:54:55.056Z,52.70
2018-09-19T10:56:57.642Z,25.20
2018-09-19T10:58:59.837Z,9.38
2018-09-19T11:01:02.115Z,11.80
2018-09-19T11:03:04.416Z,4.83
2018-09-19T11:05:06.671Z,7.15
2018-09-19T11:07:08.919Z,34.88
2018-09-19T11:09:11.207Z,31.87
2018-09-19T11:11:13.497Z,25.57
2018-09-19T11:13:15.751Z,30.25
2018-09-19T11:15:18.041Z,28.73
2018-09-19T11:17:20.343Z,20.97
2018-09-19T11:19:22.619Z,17.23
2018-09-19T11:21:24.917Z,11.83
2018-09-19T11:23:27.201Z,45.52
2018-09-19T11:25:29.479Z,56.08
2018-09-19T11:27:31.777Z,40.08
2018-09-19T11:29:34.033Z,25.02
2018-09-19T11:31:36.325Z,16.23
2018-09-19T11:33:38.621Z,6.42
2018-09-19T11:35:40.865Z,5.95
2018-09-19T11:37:43.117Z,5.12
2018-09-19T11:39:45.416Z,3.85
2018-09-19T11:41:47.711Z,6.17
2018-09-19T11:43:49.956Z,5.22
2018-09-19T11:45:52.242Z,9.53
2018-09-19T11:47:54.529Z,7.80
2018-09-19T11:49:56.817Z,6.35
2018-09-19T11:51:59.068Z,4.90
2018-09-19T11:54:01.376Z,4.40
2018-09-19T11:56:03.586Z,5.75
2018-09-19T11:58:05.863Z,4.67
2018-09-19T12:00:08.151Z,4.47
2018-09-19T12:02:10.394Z,3.50
2018-09-19T12:04:12.667Z,5.35
2018-09-19T12:06:14.954Z,4.60
2018-09-19T12:08:17.194Z,4.75
2018-09-19T12:10:19.491Z,5.33
2018-09-19T12:12:21.740Z,6.40
2018-09-19T12:14:24.013Z,5.58
2018-09-19T12:16:26.295Z,4.72
2018-09-19T12:18:28.540Z,5.33
2018-09-19T12:20:30.827Z,5.45
2018-09-19T12:22:33.097Z,4.47
2018-09-19T12:24:35.387Z,4.58
2018-09-19T12:26:37.672Z,5.22
2018-09-19T12:28:40.045Z,4.60
2018-09-19T12:30:42.354Z,7.50
2018-09-19T12:32:44.630Z,121.53
2018-09-19T12:34:46.921Z,78.05
2018-09-19T12:36:49.193Z,27.07
2018-09-19T12:38:51.444Z,22.50
2018-09-19T12:40:53.877Z,23.42
2018-09-19T12:42:56.142Z,21.25
2018-09-19T12:44:59.349Z,20.70
2018-09-19T12:47:01.647Z,42.98
2018-09-19T12:49:03.935Z,28.75
2018-09-19T12:51:06.203Z,35.15
2018-09-19T12:53:08.503Z,36.68
2018-09-19T12:55:10.809Z,29.98
2018-09-19T12:57:13.115Z,21.45
2018-09-19T12:59:15.384Z,15.15
2018-09-19T13:01:17.651Z,19.77
2018-09-19T13:03:19.957Z,36.20
2018-09-19T13:05:22.221Z,100.62
2018-09-19T13:07:24.475Z,36.25
2018-09-19T13:09:26.807Z,37.05
2018-09-19T13:11:29.090Z,15.13
2018-09-19T13:13:31.387Z,21.30
2018-09-19T13:15:33.671Z,12.93
2018-09-19T13:17:35.912Z,15.88
2018-09-19T13:19:38.210Z,18.62
2018-09-19T13:21:40.456Z,17.05
2018-09-19T13:23:42.751Z,15.85
2018-09-19T13:25:44.992Z,13.08
2018-09-19T13:27:47.283Z,14.33
2018-09-19T13:29:49.538Z,13.00
2018-09-19T13:31:51.839Z,12.37
2018-09-19T13:33:54.091Z,11.55
2018-09-19T13:35:56.389Z,12.63
2018-09-19T13:37:58.696Z,11.05
2018-09-19T13:40:00.993Z,10.45
2018-09-19T13:42:03.237Z,11.33
2018-09-19T13:44:05.531Z,10.78
2018-09-19T13:46:07.806Z,9.60
2018-09-19T13:48:10.099Z,9.90
2018-09-19T13:50:12.379Z,8.65
2018-09-19T13:52:14.675Z,9.70
2018-09-19T13:54:17.055Z,8.48
2018-09-19T13:56:19.310Z,8.78
2018-09-19T13:58:21.608Z,8.35
2018-09-19T14:00:23.851Z,8.55
2018-09-19T14:02:26.117Z,8.08
2018-09-19T14:04:28.407Z,7.28
2018-09-19T14:06:30.666Z,8.28
2018-09-19T14:08:32.942Z,8.40
2018-09-19T14:10:35.252Z,7.33
2018-09-19T14:12:37.494Z,69.47
2018-09-19T14:14:39.794Z,68.17
2018-09-19T14:16:42.058Z,50.63
2018-09-19T14:18:44.372Z,70.65
2018-09-19T14:20:46.648Z,59.58
2018-09-19T14:22:48.957Z,38.35
2018-09-19T14:24:51.196Z,17.60
2018-09-19T14:26:53.487Z,6.22
2018-09-19T14:28:55.726Z,9.38
2018-09-19T14:30:57.979Z,5.42
2018-09-19T14:33:00.281Z,5.75
2018-09-19T14:35:02.536Z,5.30
2018-09-19T14:37:04.817Z,10.10
2018-09-19T14:39:07.098Z,8.13
2018-09-19T14:41:09.350Z,6.67
2018-09-19T14:43:11.626Z,6.95
2018-09-19T14:45:13.911Z,3.98
2018-09-19T14:47:16.166Z,4.70
2018-09-19T14:49:18.451Z,4.22
2018-09-19T14:51:20.700Z,3.83
2018-09-19T14:53:22.969Z,3.30
2018-09-19T14:55:25.289Z,4.40
2018-09-19T14:57:27.529Z,3.70
2018-09-19T14:59:29.829Z,4.58
2018-09-19T15:01:32.104Z,3.70
2018-09-19T15:03:34.383Z,39.05
2018-09-19T15:05:36.669Z,69.85
2018-09-19T15:07:38.963Z,105.92
2018-09-19T15:09:41.224Z,80.47
2018-09-19T15:11:43.484Z,44.58
2018-09-19T15:13:45.763Z,26.85
2018-09-19T15:15:48.051Z,22.32
2018-09-19T15:17:50.353Z,23.95
2018-09-19T15:19:52.650Z,9.65
2018-09-19T15:21:54.983Z,13.03
2018-09-19T15:23:57.246Z,6.90
2018-09-19T15:25:59.531Z,6.58
2018-09-19T15:28:01.805Z,6.50
2018-09-19T15:30:04.055Z,8.98
2018-09-19T15:32:06.342Z,8.65
2018-09-19T15:34:08.592Z,8.88
2018-09-19T15:36:10.925Z,5.80
2018-09-19T15:38:13.171Z,5.37
2018-09-19T15:40:15.382Z,4.15
2018-09-19T15:42:17.644Z,5.00
2018-09-19T15:44:19.929Z,3.75
2018-09-19T15:46:22.206Z,6.50
2018-09-19T15:48:24.564Z,116.50
2018-09-19T15:50:26.803Z,52.60
2018-09-19T15:52:29.062Z,38.55
2018-09-19T15:54:31.327Z,22.22
2018-09-19T15:56:33.624Z,21.37
2018-09-19T15:58:35.874Z,12.73
2018-09-19T16:00:38.168Z,11.28
2018-09-19T16:02:40.422Z,15.10
2018-09-19T16:04:42.739Z,12.00
2018-09-19T16:06:44.989Z,13.50
2018-09-19T16:08:47.246Z,12.43
2018-09-19T16:10:49.528Z,6.12
2018-09-19T16:12:51.757Z,9.00
2018-09-19T16:14:54.044Z,9.60
2018-09-19T16:16:56.317Z,9.65
2018-09-19T16:18:58.578Z,9.00
2018-09-19T16:21:00.876Z,10.28
2018-09-19T16:23:03.128Z,5.95
2018-09-19T16:25:05.387Z,5.20
2018-09-19T16:27:07.670Z,7.80
2018-09-19T16:29:09.916Z,7.33
2018-09-19T16:31:12.190Z,8.25
2018-09-19T16:33:14.507Z,30.17
2018-09-19T16:35:16.748Z,27.35
2018-09-19T16:37:19.040Z,41.75
2018-09-19T16:39:21.322Z,27.90
2018-09-19T16:41:23.611Z,30.68
2018-09-19T16:43:25.865Z,22.13
2018-09-19T16:45:28.164Z,21.97
2018-09-19T16:47:30.434Z,23.05
2018-09-19T16:49:32.702Z,23.30
2018-09-19T16:51:35.010Z,14.45
2018-09-19T16:53:37.327Z,20.68
2018-09-19T16:55:39.610Z,12.35
2018-09-19T16:57:41.882Z,13.00
2018-09-19T16:59:44.158Z,13.58
2018-09-19T17:01:46.444Z,9.20
2018-09-19T17:03:48.690Z,6.78
2018-09-19T17:05:50.979Z,10.88
2018-09-19T17:07:53.248Z,14.83
2018-09-19T17:09:55.489Z,11.18
2018-09-19T17:11:57.767Z,23.27
2018-09-19T17:14:00.018Z,14.30
2018-09-19T17:16:02.310Z,8.95
2018-09-19T17:18:04.610Z,15.38
2018-09-19T17:20:06.920Z,156.95
2018-09-19T17:22:09.199Z,236.28
2018-09-19T17:24:11.516Z,96.45
2018-09-19T17:26:13.775Z,137.80
2018-09-19T17:28:16.061Z,99.67
2018-09-19T17:30:18.365Z,92.72
2018-09-19T17:32:20.653Z,66.10
2018-09-19T17:34:22.937Z,39.70
2018-09-19T17:36:25.224Z,48.00
2018-09-19T17:38:27.528Z,17.27
2018-09-19T17:40:29.809Z,19.37
2018-09-19T17:42:32.089Z,15.78
2018-09-19T17:44:34.383Z,11.78
2018-09-19T17:46:36.736Z,22.02
2018-09-19T17:48:38.995Z,29.87
2018-09-19T17:50:41.292Z,109.52
2018-09-19T17:52:43.567Z,74.60
2018-09-19T17:54:45.830Z,276.18
2018-09-19T17:56:48.121Z,330.90
2018-09-19T17:58:50.386Z,131.50
2018-09-19T18:00:52.757Z,256.02
2018-09-19T18:02:54.991Z,108.40
2018-09-19T18:04:57.250Z,81.20
2018-09-19T18:06:59.547Z,183.52
2018-09-19T18:09:01.814Z,134.43
2018-09-19T18:11:04.139Z,599.30
2018-09-19T18:13:06.399Z,498.15
2018-09-19T18:15:08.749Z,246.77
2018-09-19T18:17:11.043Z,243.93
2018-09-19T18:19:13.304Z,244.90
2018-09-19T18:21:15.835Z,366.40
2018-09-19T18:23:18.104Z,256.02
2018-09-19T18:25:20.384Z,279.25
2018-09-19T18:27:22.683Z,325.60
2018-09-19T18:29:24.993Z,289.77
2018-09-19T18:31:27.296Z,226.05
2018-09-19T18:33:29.550Z,226.02
2018-09-19T18:35:31.819Z,223.93
2018-09-19T18:37:34.122Z,234.70
2018-09-19T18:39:36.402Z,255.65
2018-09-19T18:41:38.708Z,323.27
2018-09-19T18:43:40.987Z,272.75
2018-09-19T18:45:43.256Z,217.15
2018-09-19T18:47:45.565Z,223.93
2018-09-19T18:49:47.828Z,227.80
2018-09-19T18:51:50.139Z,238.85
2018-09-19T18:53:52.418Z,249.67
2018-09-19T18:55:54.734Z,233.80
2018-09-19T18:57:56.986Z,240.28
2018-09-19T18:59:59.300Z,214.82
2018-09-19T19:02:01.565Z,310.20
2018-09-19T19:04:03.858Z,235.80
2018-09-19T19:06:06.149Z,248.80
2018-09-19T19:08:08.441Z,229.93
2018-09-19T19:10:10.746Z,240.18
2018-09-19T19:12:13.095Z,261.23
2018-09-19T19:14:15.415Z,241.10
2018-09-19T19:16:17.718Z,235.88
2018-09-19T19:18:19.995Z,246.95
2018-09-19T19:20:22.285Z,237.32
2018-09-19T19:22:24.577Z,236.30
2018-09-19T19:24:27.234Z,210.38
2018-09-19T19:26:29.483Z,199.55
2018-09-19T19:28:31.746Z,208.32
2018-09-19T19:30:34.190Z,196.63
2018-09-19T19:32:36.327Z,184.10
2018-09-19T19:34:38.600Z,201.00
2018-09-19T19:36:40.891Z,185.85
2018-09-19T19:38:43.143Z,173.00
2018-09-19T19:40:45.451Z,169.20
2018-09-19T19:42:47.760Z,177.12
2018-09-19T19:44:50.060Z,177.15
2018-09-19T19:46:52.314Z,165.82
2018-09-19T19:48:54.591Z,161.35
2018-09-19T19:50:56.862Z,162.37
2018-09-19T19:52:59.160Z,164.75
2018-09-19T19:55:01.432Z,271.02
2018-09-19T19:57:03.687Z,170.72
2018-09-19T19:59:06.079Z,227.03
2018-09-19T20:01:08.322Z,277.40
2018-09-19T20:03:10.585Z,291.32
2018-09-19T20:05:12.898Z,326.65
2018-09-19T20:07:15.202Z,317.02
2018-09-19T20:09:17.490Z,308.17
2018-09-19T20:11:19.791Z,338.70
2018-09-19T20:13:22.042Z,319.32
2018-09-19T20:15:24.304Z,314.65
2018-09-19T20:17:26.597Z,327.05
2018-09-19T20:19:28.916Z,317.62
2018-09-19T20:21:31.194Z,318.00
2018-09-19T20:23:33.503Z,312.88
2018-09-19T20:25:35.822Z,311.20
2018-09-19T20:27:38.121Z,367.82
2018-09-19T20:29:40.395Z,330.57
2018-09-19T20:31:42.720Z,325.15
2018-09-19T20:33:44.971Z,357.87
2018-09-19T20:35:47.251Z,419.95
2018-09-19T20:37:49.520Z,458.18
2018-09-19T20:39:51.846Z,446.83
2018-09-19T20:41:54.142Z,437.02
2018-09-19T20:43:56.396Z,428.20
2018-09-19T20:45:58.645Z,433.45
2018-09-19T20:48:01.060Z,397.12
2018-09-19T20:50:03.311Z,405.03
2018-09-19T20:52:05.576Z,403.27
2018-09-19T20:54:07.878Z,379.95
2018-09-19T20:56:10.144Z,408.98
2018-09-19T20:58:12.447Z,444.52
2018-09-19T21:00:14.700Z,484.73
2018-09-19T21:02:16.969Z,499.88
2018-09-19T21:04:19.313Z,511.50
2018-09-19T21:06:21.546Z,510.75
2018-09-19T21:08:23.802Z,497.37
2018-09-19T21:10:26.104Z,495.12
2018-09-19T21:12:28.369Z,478.95
2018-09-19T21:14:30.663Z,453.25
2018-09-19T21:16:32.944Z,473.30
2018-09-19T21:18:35.247Z,447.80
2018-09-19T21:20:37.526Z,459.40
2018-09-19T21:22:39.820Z,466.05
2018-09-19T21:24:42.082Z,448.47
2018-09-19T21:26:44.328Z,460.75
2018-09-19T21:28:46.594Z,446.20
2018-09-19T21:30:48.890Z,458.95
2018-09-19T21:32:51.176Z,435.23
2018-09-19T21:34:54.230Z,447.48
2018-09-19T21:36:56.494Z,450.72
2018-09-19T21:38:58.875Z,429.53
2018-09-19T21:41:01.128Z,452.90
2018-09-19T21:43:03.414Z,429.05
2018-09-19T21:45:05.689Z,429.77
2018-09-19T21:47:07.960Z,439.60
2018-09-19T21:49:10.243Z,430.27
2018-09-19T21:51:12.557Z,442.10
2018-09-19T21:53:14.828Z,434.80
2018-09-19T21:55:17.204Z,437.42
2018-09-19T21:57:19.514Z,432.62
2018-09-19T21:59:21.786Z,452.73
2018-09-19T22:01:24.100Z,439.40
2018-09-19T22:03:26.405Z,465.35
2018-09-19T22:05:28.657Z,507.25
2018-09-19T22:07:30.966Z,510.00
2018-09-19T22:09:34.125Z,530.13
2018-09-19T22:11:36.392Z,484.48
2018-09-19T22:13:38.660Z,485.70
2018-09-19T22:15:40.945Z,480.10
2018-09-19T22:17:43.244Z,478.40
2018-09-19T22:19:45.562Z,471.87
2018-09-19T22:21:47.822Z,476.30
2018-09-19T22:23:50.119Z,467.27
2018-09-19T22:25:52.421Z,455.65
2018-09-19T22:27:54.679Z,455.22
2018-09-19T22:29:56.956Z,456.37
2018-09-19T22:31:59.230Z,476.20
2018-09-19T22:34:01.524Z,467.60
2018-09-19T22:36:03.778Z,430.60
2018-09-19T22:38:06.074Z,457.82
2018-09-19T22:40:08.348Z,433.57
2018-09-19T22:42:10.666Z,417.80
2018-09-19T22:44:12.958Z,418.70
2018-09-19T22:46:15.246Z,415.75
2018-09-19T22:48:17.530Z,442.98
2018-09-19T22:50:19.790Z,426.77
2018-09-19T22:52:22.100Z,433.65
2018-09-19T22:54:24.384Z,432.30
2018-09-19T22:56:26.680Z,418.65
2018-09-19T22:58:28.969Z,404.98
2018-09-19T23:00:31.238Z,416.18
2018-09-19T23:02:33.498Z,397.00
2018-09-19T23:04:35.802Z,396.25
2018-09-19T23:06:38.060Z,387.40
2018-09-19T23:08:40.387Z,394.85
2018-09-19T23:10:42.641Z,395.03
2018-09-19T23:12:44.919Z,401.48
2018-09-19T23:14:47.240Z,398.57
2018-09-19T23:16:49.500Z,384.50
2018-09-19T23:18:51.771Z,405.83
2018-09-19T23:20:54.070Z,390.75
2018-09-19T23:22:56.332Z,398.18
2018-09-19T23:24:58.630Z,377.52
2018-09-19T23:27:00.881Z,394.40
2018-09-19T23:29:03.258Z,370.65
2018-09-19T23:31:05.536Z,370.75
2018-09-19T23:33:07.792Z,377.02
2018-09-19T23:35:10.105Z,380.45
2018-09-19T23:37:12.373Z,355.25
2018-09-19T23:39:14.616Z,361.73
2018-09-19T23:41:16.922Z,349.85
2018-09-19T23:43:19.196Z,352.45
2018-09-19T23:45:21.508Z,355.10
2018-09-19T23:47:23.799Z,353.05
2018-09-19T23:49:26.073Z,344.05
2018-09-19T23:51:28.384Z,343.15
2018-09-19T23:53:30.642Z,334.70
2018-09-19T23:55:32.922Z,338.60
2018-09-19T23:57:35.226Z,324.37
2018-09-19T23:59:37.524Z,336.23
